sensor_id;sensor_type;location;lat;lon;timestamp;pressure;altitude;pressure_sealevel;temperature;humidity
62864;BME280;48954;59.950;11.014;2023-02-01T00:01:42;97371.05;;;-2.38;80.94
62864;BME280;48954;59.950;11.014;2023-02-01T00:04:08;97362.30;;;-2.37;81.01
62864;BME280;48954;59.950;11.014;2023-02-01T00:06:34;97360.00;;;-2.37;81.12
62864;BME280;48954;59.950;11.014;2023-02-01T00:09:00;97355.04;;;-2.36;81.07
62864;BME280;48954;59.950;11.014;2023-02-01T00:11:26;97349.05;;;-2.36;80.88
62864;BME280;48954;59.950;11.014;2023-02-01T00:13:52;97348.19;;;-2.34;81.01
62864;BME280;48954;59.950;11.014;2023-02-01T00:16:23;97353.05;;;-2.34;80.95
62864;BME280;48954;59.950;11.014;2023-02-01T00:18:51;97349.20;;;-2.33;80.99
62864;BME280;48954;59.950;11.014;2023-02-01T00:21:19;97347.61;;;-2.33;80.64
62864;BME280;48954;59.950;11.014;2023-02-01T00:23:46;97347.91;;;-2.31;80.91
62864;BME280;48954;59.950;11.014;2023-02-01T00:26:18;97351.77;;;-2.28;80.88
62864;BME280;48954;59.950;11.014;2023-02-01T00:28:45;97351.77;;;-2.26;80.81
62864;BME280;48954;59.950;11.014;2023-02-01T00:31:12;97343.74;;;-2.23;80.99
62864;BME280;48954;59.950;11.014;2023-02-01T00:33:37;97339.98;;;-2.19;80.95
62864;BME280;48954;59.950;11.014;2023-02-01T00:36:05;97339.27;;;-2.18;80.80
62864;BME280;48954;59.950;11.014;2023-02-01T00:38:33;97332.96;;;-2.15;80.73
62864;BME280;48954;59.950;11.014;2023-02-01T00:41:04;97336.75;;;-2.13;80.85
62864;BME280;48954;59.950;11.014;2023-02-01T00:43:31;97332.27;;;-2.11;80.77
62864;BME280;48954;59.950;11.014;2023-02-01T00:45:57;97333.55;;;-2.09;80.94
62864;BME280;48954;59.950;11.014;2023-02-01T00:48:26;97331.82;;;-2.08;80.88
62864;BME280;48954;59.950;11.014;2023-02-01T00:50:52;97332.06;;;-2.07;80.73
62864;BME280;48954;59.950;11.014;2023-02-01T00:53:18;97331.27;;;-2.06;81.05
62864;BME280;48954;59.950;11.014;2023-02-01T00:55:47;97330.15;;;-2.05;80.68
62864;BME280;48954;59.950;11.014;2023-02-01T00:58:14;97330.10;;;-2.03;80.95
62864;BME280;48954;59.950;11.014;2023-02-01T01:00:40;97329.90;;;-2.03;80.97
62864;BME280;48954;59.950;11.014;2023-02-01T01:03:06;97329.48;;;-2.02;80.83
62864;BME280;48954;59.950;11.014;2023-02-01T01:05:32;97322.75;;;-2.00;80.88
62864;BME280;48954;59.950;11.014;2023-02-01T01:07:57;97322.94;;;-2.00;81.31
62864;BME280;48954;59.950;11.014;2023-02-01T01:10:24;97310.30;;;-1.98;81.22
62864;BME280;48954;59.950;11.014;2023-02-01T01:12:49;97303.86;;;-1.97;80.96
62864;BME280;48954;59.950;11.014;2023-02-01T01:15:15;97295.30;;;-1.97;81.17
62864;BME280;48954;59.950;11.014;2023-02-01T01:17:41;97289.63;;;-1.97;80.90
62864;BME280;48954;59.950;11.014;2023-02-01T01:20:07;97287.79;;;-1.97;80.94
62864;BME280;48954;59.950;11.014;2023-02-01T01:22:33;97281.75;;;-1.95;80.89
62864;BME280;48954;59.950;11.014;2023-02-01T01:24:59;97274.19;;;-1.96;80.99
62864;BME280;48954;59.950;11.014;2023-02-01T01:27:25;97262.13;;;-1.97;80.89
62864;BME280;48954;59.950;11.014;2023-02-01T01:29:51;97266.02;;;-1.99;80.78
62864;BME280;48954;59.950;11.014;2023-02-01T01:32:16;97269.23;;;-2.01;80.84
62864;BME280;48954;59.950;11.014;2023-02-01T01:34:42;97274.91;;;-2.02;80.97
62864;BME280;48954;59.950;11.014;2023-02-01T01:37:08;97270.42;;;-2.03;80.83
62864;BME280;48954;59.950;11.014;2023-02-01T01:39:34;97273.31;;;-2.03;81.17
62864;BME280;48954;59.950;11.014;2023-02-01T01:41:59;97279.06;;;-2.04;80.90
62864;BME280;48954;59.950;11.014;2023-02-01T01:44:58;97276.27;;;-2.05;80.82
62864;BME280;48954;59.950;11.014;2023-02-01T01:47:29;97282.19;;;-2.05;80.86
62864;BME280;48954;59.950;11.014;2023-02-01T01:49:56;97288.09;;;-2.06;80.77
62864;BME280;48954;59.950;11.014;2023-02-01T01:52:23;97282.23;;;-2.09;80.95
62864;BME280;48954;59.950;11.014;2023-02-01T01:54:51;97283.52;;;-2.10;81.04
62864;BME280;48954;59.950;11.014;2023-02-01T01:57:22;97283.63;;;-2.11;81.17
62864;BME280;48954;59.950;11.014;2023-02-01T01:59:55;97281.09;;;-2.11;81.08
62864;BME280;48954;59.950;11.014;2023-02-01T02:02:24;97287.11;;;-2.13;81.01
62864;BME280;48954;59.950;11.014;2023-02-01T02:04:50;97290.64;;;-2.15;80.74
62864;BME280;48954;59.950;11.014;2023-02-01T02:07:21;97282.33;;;-2.16;80.93
62864;BME280;48954;59.950;11.014;2023-02-01T02:09:47;97274.64;;;-2.15;81.19
62864;BME280;48954;59.950;11.014;2023-02-01T02:12:13;97273.16;;;-2.13;81.12
62864;BME280;48954;59.950;11.014;2023-02-01T02:14:39;97271.45;;;-2.12;80.96
62864;BME280;48954;59.950;11.014;2023-02-01T02:33:28;97271.16;;;-2.11;81.07
62864;BME280;48954;59.950;11.014;2023-02-01T02:36:12;97268.86;;;-2.13;81.30
62864;BME280;48954;59.950;11.014;2023-02-01T02:38:47;97264.46;;;-2.13;81.24
62864;BME280;48954;59.950;11.014;2023-02-01T02:41:22;97267.36;;;-2.14;81.10
62864;BME280;48954;59.950;11.014;2023-02-01T02:43:55;97264.95;;;-2.15;81.20
62864;BME280;48954;59.950;11.014;2023-02-01T02:46:37;97268.90;;;-2.14;81.13
62864;BME280;48954;59.950;11.014;2023-02-01T02:49:10;97265.74;;;-2.12;81.61
62864;BME280;48954;59.950;11.014;2023-02-01T02:51:46;97262.04;;;-2.10;81.25
62864;BME280;48954;59.950;11.014;2023-02-01T02:54:18;97258.23;;;-2.09;81.32
62864;BME280;48954;59.950;11.014;2023-02-01T02:56:44;97258.56;;;-2.07;81.42
62864;BME280;48954;59.950;11.014;2023-02-01T02:59:14;97259.05;;;-2.05;81.15
62864;BME280;48954;59.950;11.014;2023-02-01T03:01:41;97251.70;;;-2.03;81.41
62864;BME280;48954;59.950;11.014;2023-02-01T03:04:07;97249.13;;;-2.02;81.51
62864;BME280;48954;59.950;11.014;2023-02-01T03:06:33;97244.55;;;-2.01;81.35
62864;BME280;48954;59.950;11.014;2023-02-01T03:09:02;97239.63;;;-2.00;81.32
62864;BME280;48954;59.950;11.014;2023-02-01T03:11:31;97240.48;;;-1.98;81.45
62864;BME280;48954;59.950;11.014;2023-02-01T03:14:00;97241.36;;;-1.97;81.63
62864;BME280;48954;59.950;11.014;2023-02-01T03:16:32;97240.84;;;-1.97;81.44
62864;BME280;48954;59.950;11.014;2023-02-01T03:19:03;97237.95;;;-1.95;81.65
62864;BME280;48954;59.950;11.014;2023-02-01T03:21:35;97232.65;;;-1.94;81.50
62864;BME280;48954;59.950;11.014;2023-02-01T03:24:09;97233.66;;;-1.94;81.70
62864;BME280;48954;59.950;11.014;2023-02-01T03:26:38;97226.65;;;-1.95;81.23
62864;BME280;48954;59.950;11.014;2023-02-01T03:29:18;97227.04;;;-1.95;81.55
62864;BME280;48954;59.950;11.014;2023-02-01T03:31:48;97225.89;;;-1.94;81.44
62864;BME280;48954;59.950;11.014;2023-02-01T03:34:14;97228.27;;;-1.94;81.50
62864;BME280;48954;59.950;11.014;2023-02-01T03:36:44;97235.48;;;-1.93;81.68
62864;BME280;48954;59.950;11.014;2023-02-01T03:42:18;97222.80;;;-1.92;81.40
62864;BME280;48954;59.950;11.014;2023-02-01T03:45:01;97218.48;;;-1.92;81.66
62864;BME280;48954;59.950;11.014;2023-02-01T03:47:33;97223.54;;;-1.91;81.52
62864;BME280;48954;59.950;11.014;2023-02-01T03:50:08;97220.31;;;-1.88;81.70
62864;BME280;48954;59.950;11.014;2023-02-01T03:52:41;97216.91;;;-1.86;81.54
62864;BME280;48954;59.950;11.014;2023-02-01T03:55:09;97216.63;;;-1.85;81.68
62864;BME280;48954;59.950;11.014;2023-02-01T03:57:41;97223.33;;;-1.85;81.41
62864;BME280;48954;59.950;11.014;2023-02-01T04:00:17;97219.91;;;-1.86;81.49
62864;BME280;48954;59.950;11.014;2023-02-01T04:02:43;97221.12;;;-1.87;81.33
62864;BME280;48954;59.950;11.014;2023-02-01T04:05:09;97223.05;;;-1.87;81.76
62864;BME280;48954;59.950;11.014;2023-02-01T04:07:35;97227.99;;;-1.86;81.62
62864;BME280;48954;59.950;11.014;2023-02-01T04:10:00;97226.55;;;-1.85;81.74
62864;BME280;48954;59.950;11.014;2023-02-01T04:12:26;97226.69;;;-1.86;81.50
62864;BME280;48954;59.950;11.014;2023-02-01T04:14:52;97230.81;;;-1.87;81.61
62864;BME280;48954;59.950;11.014;2023-02-01T04:17:18;97235.35;;;-1.87;81.72
62864;BME280;48954;59.950;11.014;2023-02-01T04:19:43;97230.02;;;-1.88;81.58
62864;BME280;48954;59.950;11.014;2023-02-01T04:22:09;97225.23;;;-1.88;81.59
62864;BME280;48954;59.950;11.014;2023-02-01T04:24:35;97229.63;;;-1.90;81.68
62864;BME280;48954;59.950;11.014;2023-02-01T04:27:01;97226.75;;;-1.91;81.72
62864;BME280;48954;59.950;11.014;2023-02-01T04:29:26;97243.77;;;-1.91;81.72
62864;BME280;48954;59.950;11.014;2023-02-01T04:31:52;97252.34;;;-1.90;81.60
62864;BME280;48954;59.950;11.014;2023-02-01T04:34:18;97259.73;;;-1.90;81.73
62864;BME280;48954;59.950;11.014;2023-02-01T04:36:44;97260.27;;;-1.90;81.72
62864;BME280;48954;59.950;11.014;2023-02-01T04:39:09;97261.02;;;-1.91;81.87
62864;BME280;48954;59.950;11.014;2023-02-01T04:41:35;97260.98;;;-1.92;81.85
62864;BME280;48954;59.950;11.014;2023-02-01T04:44:01;97258.34;;;-1.93;81.86
62864;BME280;48954;59.950;11.014;2023-02-01T04:46:27;97255.64;;;-1.93;82.03
62864;BME280;48954;59.950;11.014;2023-02-01T04:48:53;97252.16;;;-1.93;81.75
62864;BME280;48954;59.950;11.014;2023-02-01T04:51:20;97256.70;;;-1.93;81.91
62864;BME280;48954;59.950;11.014;2023-02-01T04:53:45;97271.16;;;-1.94;81.79
62864;BME280;48954;59.950;11.014;2023-02-01T04:56:11;97271.52;;;-1.95;81.79
62864;BME280;48954;59.950;11.014;2023-02-01T04:58:37;97269.50;;;-1.96;81.73
62864;BME280;48954;59.950;11.014;2023-02-01T05:01:04;97269.09;;;-1.97;81.75
62864;BME280;48954;59.950;11.014;2023-02-01T05:03:33;97264.40;;;-1.96;82.03
62864;BME280;48954;59.950;11.014;2023-02-01T05:06:00;97265.88;;;-1.96;81.78
62864;BME280;48954;59.950;11.014;2023-02-01T05:08:26;97266.43;;;-1.95;81.80
62864;BME280;48954;59.950;11.014;2023-02-01T05:10:53;97270.76;;;-1.95;81.81
62864;BME280;48954;59.950;11.014;2023-02-01T05:13:18;97276.43;;;-1.96;81.97
62864;BME280;48954;59.950;11.014;2023-02-01T05:15:44;97284.33;;;-1.96;81.94
62864;BME280;48954;59.950;11.014;2023-02-01T05:18:10;97285.42;;;-1.98;82.06
62864;BME280;48954;59.950;11.014;2023-02-01T05:20:36;97289.02;;;-1.99;81.86
62864;BME280;48954;59.950;11.014;2023-02-01T05:23:02;97297.61;;;-1.99;81.98
62864;BME280;48954;59.950;11.014;2023-02-01T05:25:27;97301.36;;;-2.00;81.70
62864;BME280;48954;59.950;11.014;2023-02-01T05:27:54;97302.26;;;-2.01;81.97
62864;BME280;48954;59.950;11.014;2023-02-01T05:30:19;97302.57;;;-2.03;82.06
62864;BME280;48954;59.950;11.014;2023-02-01T05:32:45;97303.58;;;-2.05;82.06
62864;BME280;48954;59.950;11.014;2023-02-01T05:35:14;97301.04;;;-2.05;82.08
62864;BME280;48954;59.950;11.014;2023-02-01T05:37:41;97297.46;;;-2.06;82.05
62864;BME280;48954;59.950;11.014;2023-02-01T05:40:07;97298.81;;;-2.08;82.09
62864;BME280;48954;59.950;11.014;2023-02-01T05:42:33;97301.59;;;-2.10;81.92
62864;BME280;48954;59.950;11.014;2023-02-01T05:44:59;97303.54;;;-2.12;81.79
62864;BME280;48954;59.950;11.014;2023-02-01T05:47:25;97308.50;;;-2.13;81.68
62864;BME280;48954;59.950;11.014;2023-02-01T05:49:50;97310.55;;;-2.16;81.89
62864;BME280;48954;59.950;11.014;2023-02-01T05:52:16;97312.95;;;-2.18;82.12
62864;BME280;48954;59.950;11.014;2023-02-01T05:54:42;97315.63;;;-2.21;81.80
62864;BME280;48954;59.950;11.014;2023-02-01T05:57:08;97317.27;;;-2.22;82.09
62864;BME280;48954;59.950;11.014;2023-02-01T05:59:34;97318.45;;;-2.22;82.17
62864;BME280;48954;59.950;11.014;2023-02-01T06:02:00;97316.95;;;-2.23;81.80
62864;BME280;48954;59.950;11.014;2023-02-01T06:04:27;97321.23;;;-2.24;81.88
62864;BME280;48954;59.950;11.014;2023-02-01T06:06:54;97324.19;;;-2.25;82.11
62864;BME280;48954;59.950;11.014;2023-02-01T06:09:28;97326.34;;;-2.25;82.14
62864;BME280;48954;59.950;11.014;2023-02-01T06:11:56;97328.61;;;-2.26;82.08
62864;BME280;48954;59.950;11.014;2023-02-01T06:14:22;97330.31;;;-2.26;82.04
62864;BME280;48954;59.950;11.014;2023-02-01T06:16:49;97330.38;;;-2.26;81.98
62864;BME280;48954;59.950;11.014;2023-02-01T06:19:16;97333.14;;;-2.26;82.07
62864;BME280;48954;59.950;11.014;2023-02-01T06:21:42;97334.51;;;-2.27;82.03
62864;BME280;48954;59.950;11.014;2023-02-01T06:24:08;97338.23;;;-2.28;82.01
62864;BME280;48954;59.950;11.014;2023-02-01T06:26:35;97339.94;;;-2.28;82.16
62864;BME280;48954;59.950;11.014;2023-02-01T06:29:02;97341.65;;;-2.29;81.94
62864;BME280;48954;59.950;11.014;2023-02-01T06:31:28;97340.55;;;-2.30;82.36
62864;BME280;48954;59.950;11.014;2023-02-01T06:33:54;97342.56;;;-2.32;82.11
62864;BME280;48954;59.950;11.014;2023-02-01T06:36:20;97345.75;;;-2.33;82.20
62864;BME280;48954;59.950;11.014;2023-02-01T06:38:47;97349.50;;;-2.36;82.16
62864;BME280;48954;59.950;11.014;2023-02-01T06:41:13;97353.65;;;-2.39;81.87
62864;BME280;48954;59.950;11.014;2023-02-01T06:43:39;97359.09;;;-2.39;82.47
62864;BME280;48954;59.950;11.014;2023-02-01T06:46:07;97364.70;;;-2.39;82.12
62864;BME280;48954;59.950;11.014;2023-02-01T06:48:34;97368.83;;;-2.40;82.23
62864;BME280;48954;59.950;11.014;2023-02-01T06:51:03;97366.27;;;-2.41;82.33
62864;BME280;48954;59.950;11.014;2023-02-01T06:55:56;97381.28;;;-2.42;82.47
62864;BME280;48954;59.950;11.014;2023-02-01T06:58:23;97379.67;;;-2.42;82.42
62864;BME280;48954;59.950;11.014;2023-02-01T07:00:49;97386.80;;;-2.40;82.11
62864;BME280;48954;59.950;11.014;2023-02-01T07:03:16;97390.98;;;-2.40;82.33
62864;BME280;48954;59.950;11.014;2023-02-01T07:05:45;97388.89;;;-2.38;82.28
62864;BME280;48954;59.950;11.014;2023-02-01T07:08:20;97388.45;;;-2.38;82.08
62864;BME280;48954;59.950;11.014;2023-02-01T07:10:46;97393.38;;;-2.37;82.61
62864;BME280;48954;59.950;11.014;2023-02-01T07:13:14;97394.95;;;-2.36;82.44
62864;BME280;48954;59.950;11.014;2023-02-01T07:15:58;97393.95;;;-2.37;82.30
62864;BME280;48954;59.950;11.014;2023-02-01T07:18:24;97396.29;;;-2.38;82.57
62864;BME280;48954;59.950;11.014;2023-02-01T07:20:51;97401.42;;;-2.38;82.21
62864;BME280;48954;59.950;11.014;2023-02-01T07:23:33;97403.77;;;-2.39;82.25
62864;BME280;48954;59.950;11.014;2023-02-01T07:26:05;97403.88;;;-2.38;82.13
62864;BME280;48954;59.950;11.014;2023-02-01T07:28:34;97406.70;;;-2.39;82.17
62864;BME280;48954;59.950;11.014;2023-02-01T07:34:00;97412.69;;;-2.41;82.32
62864;BME280;48954;59.950;11.014;2023-02-01T07:40:05;97416.63;;;-2.48;81.99
62864;BME280;48954;59.950;11.014;2023-02-01T07:42:48;97416.94;;;-2.52;81.90
62864;BME280;48954;59.950;11.014;2023-02-01T07:45:30;97424.86;;;-2.56;81.87
62864;BME280;48954;59.950;11.014;2023-02-01T07:48:20;97435.80;;;-2.58;81.70
62864;BME280;48954;59.950;11.014;2023-02-01T07:51:06;97443.97;;;-2.59;82.08
62864;BME280;48954;59.950;11.014;2023-02-01T07:53:48;97452.58;;;-2.59;82.12
62864;BME280;48954;59.950;11.014;2023-02-01T07:56:17;97452.33;;;-2.60;81.87
62864;BME280;48954;59.950;11.014;2023-02-01T07:59:02;97451.25;;;-2.60;82.21
62864;BME280;48954;59.950;11.014;2023-02-01T08:01:35;97451.18;;;-2.60;81.89
62864;BME280;48954;59.950;11.014;2023-02-01T08:04:04;97454.08;;;-2.61;82.12
62864;BME280;48954;59.950;11.014;2023-02-01T08:06:34;97460.66;;;-2.61;81.90
62864;BME280;48954;59.950;11.014;2023-02-01T08:09:11;97467.35;;;-2.62;81.92
62864;BME280;48954;59.950;11.014;2023-02-01T08:11:52;97468.98;;;-2.61;82.10
62864;BME280;48954;59.950;11.014;2023-02-01T08:14:32;97473.45;;;-2.61;82.09
62864;BME280;48954;59.950;11.014;2023-02-01T08:17:03;97472.65;;;-2.60;82.09
62864;BME280;48954;59.950;11.014;2023-02-01T08:19:34;97473.44;;;-2.59;81.75
62864;BME280;48954;59.950;11.014;2023-02-01T08:22:11;97473.77;;;-2.58;81.79
62864;BME280;48954;59.950;11.014;2023-02-01T08:24:54;97478.55;;;-2.57;81.83
62864;BME280;48954;59.950;11.014;2023-02-01T08:27:37;97482.51;;;-2.57;82.00
62864;BME280;48954;59.950;11.014;2023-02-01T08:30:18;97489.52;;;-2.57;82.10
62864;BME280;48954;59.950;11.014;2023-02-01T08:33:01;97496.25;;;-2.55;81.79
62864;BME280;48954;59.950;11.014;2023-02-01T08:35:51;97501.27;;;-2.53;81.88
62864;BME280;48954;59.950;11.014;2023-02-01T08:38:34;97500.45;;;-2.52;81.77
62864;BME280;48954;59.950;11.014;2023-02-01T08:41:18;97496.16;;;-2.49;81.84
62864;BME280;48954;59.950;11.014;2023-02-01T08:43:59;97498.65;;;-2.49;81.61
62864;BME280;48954;59.950;11.014;2023-02-01T08:47:19;97503.32;;;-2.47;81.65
62864;BME280;48954;59.950;11.014;2023-02-01T08:50:09;97501.59;;;-2.46;81.73
62864;BME280;48954;59.950;11.014;2023-02-01T08:52:51;97496.48;;;-2.44;81.88
62864;BME280;48954;59.950;11.014;2023-02-01T08:55:33;97491.05;;;-2.44;81.69
62864;BME280;48954;59.950;11.014;2023-02-01T08:58:17;97486.61;;;-2.43;81.75
62864;BME280;48954;59.950;11.014;2023-02-01T09:01:12;97486.85;;;-2.43;81.87
62864;BME280;48954;59.950;11.014;2023-02-01T09:03:39;97490.32;;;-2.43;81.48
62864;BME280;48954;59.950;11.014;2023-02-01T09:06:10;97496.18;;;-2.42;81.65
62864;BME280;48954;59.950;11.014;2023-02-01T09:08:38;97497.10;;;-2.42;81.40
62864;BME280;48954;59.950;11.014;2023-02-01T09:11:21;97503.84;;;-2.43;81.63
62864;BME280;48954;59.950;11.014;2023-02-01T09:13:48;97509.70;;;-2.43;81.50
62864;BME280;48954;59.950;11.014;2023-02-01T09:16:20;97512.67;;;-2.42;81.78
62864;BME280;48954;59.950;11.014;2023-02-01T09:18:57;97516.51;;;-2.42;81.73
62864;BME280;48954;59.950;11.014;2023-02-01T09:21:38;97523.47;;;-2.41;81.61
62864;BME280;48954;59.950;11.014;2023-02-01T09:24:23;97524.25;;;-2.38;81.38
62864;BME280;48954;59.950;11.014;2023-02-01T09:27:07;97531.68;;;-2.37;81.35
62864;BME280;48954;59.950;11.014;2023-02-01T09:30:11;97530.73;;;-2.36;81.53
62864;BME280;48954;59.950;11.014;2023-02-01T09:32:54;97533.31;;;-2.32;81.58
62864;BME280;48954;59.950;11.014;2023-02-01T09:35:26;97534.32;;;-2.28;81.43
62864;BME280;48954;59.950;11.014;2023-02-01T09:38:09;97546.05;;;-2.23;81.75
62864;BME280;48954;59.950;11.014;2023-02-01T09:40:49;97551.09;;;-2.19;81.78
62864;BME280;48954;59.950;11.014;2023-02-01T09:46:30;97561.94;;;-2.09;81.50
62864;BME280;48954;59.950;11.014;2023-02-01T09:49:23;97558.21;;;-2.08;81.36
62864;BME280;48954;59.950;11.014;2023-02-01T09:52:07;97565.16;;;-2.07;80.95
62864;BME280;48954;59.950;11.014;2023-02-01T09:54:55;97569.04;;;-2.09;81.19
62864;BME280;48954;59.950;11.014;2023-02-01T09:57:48;97574.40;;;-2.10;81.17
62864;BME280;48954;59.950;11.014;2023-02-01T10:00:23;97575.50;;;-2.09;81.08
62864;BME280;48954;59.950;11.014;2023-02-01T10:03:05;97582.41;;;-2.09;81.39
62864;BME280;48954;59.950;11.014;2023-02-01T10:08:33;97585.60;;;-2.12;80.81
62864;BME280;48954;59.950;11.014;2023-02-01T10:11:32;97585.46;;;-2.12;80.85
62864;BME280;48954;59.950;11.014;2023-02-01T10:14:29;97585.90;;;-2.10;80.91
62864;BME280;48954;59.950;11.014;2023-02-01T10:22:44;97589.17;;;-2.07;81.16
62864;BME280;48954;59.950;11.014;2023-02-01T10:25:41;97594.77;;;-2.05;80.60
62864;BME280;48954;59.950;11.014;2023-02-01T10:28:16;97597.45;;;-2.02;80.75
62864;BME280;48954;59.950;11.014;2023-02-01T10:30:57;97599.36;;;-1.98;80.93
62864;BME280;48954;59.950;11.014;2023-02-01T10:33:35;97600.73;;;-1.95;80.68
62864;BME280;48954;59.950;11.014;2023-02-01T10:36:38;97603.98;;;-1.92;80.52
62864;BME280;48954;59.950;11.014;2023-02-01T10:39:11;97611.05;;;-1.90;80.31
62864;BME280;48954;59.950;11.014;2023-02-01T10:41:52;97617.94;;;-1.93;80.60
62864;BME280;48954;59.950;11.014;2023-02-01T10:44:26;97621.30;;;-1.93;80.51
62864;BME280;48954;59.950;11.014;2023-02-01T10:47:09;97620.74;;;-1.97;80.30
62864;BME280;48954;59.950;11.014;2023-02-01T10:49:45;97624.23;;;-1.96;80.34
62864;BME280;48954;59.950;11.014;2023-02-01T10:52:30;97627.63;;;-1.98;80.40
62864;BME280;48954;59.950;11.014;2023-02-01T10:55:27;97631.03;;;-1.99;80.45
62864;BME280;48954;59.950;11.014;2023-02-01T10:57:59;97630.72;;;-1.99;80.23
62864;BME280;48954;59.950;11.014;2023-02-01T11:00:27;97628.59;;;-1.99;80.41
62864;BME280;48954;59.950;11.014;2023-02-01T11:02:53;97634.38;;;-1.96;80.50
62864;BME280;48954;59.950;11.014;2023-02-01T11:05:20;97639.08;;;-1.93;80.34
62864;BME280;48954;59.950;11.014;2023-02-01T11:07:49;97641.10;;;-1.91;80.52
62864;BME280;48954;59.950;11.014;2023-02-01T11:10:38;97637.39;;;-1.90;80.14
62864;BME280;48954;59.950;11.014;2023-02-01T11:13:05;97640.77;;;-1.88;80.33
62864;BME280;48954;59.950;11.014;2023-02-01T11:15:31;97646.59;;;-1.87;80.40
62864;BME280;48954;59.950;11.014;2023-02-01T11:18:14;97655.70;;;-1.84;80.29
62864;BME280;48954;59.950;11.014;2023-02-01T11:20:41;97661.05;;;-1.83;80.23
62864;BME280;48954;59.950;11.014;2023-02-01T11:23:15;97662.08;;;-1.82;80.55
62864;BME280;48954;59.950;11.014;2023-02-01T11:25:52;97659.95;;;-1.78;80.30
62864;BME280;48954;59.950;11.014;2023-02-01T11:28:22;97673.13;;;-1.81;80.12
62864;BME280;48954;59.950;11.014;2023-02-01T11:30:51;97674.61;;;-1.83;80.14
62864;BME280;48954;59.950;11.014;2023-02-01T11:33:27;97672.70;;;-1.84;80.03
62864;BME280;48954;59.950;11.014;2023-02-01T11:35:59;97676.27;;;-1.88;79.85
62864;BME280;48954;59.950;11.014;2023-02-01T11:38:31;97672.86;;;-1.90;79.82
62864;BME280;48954;59.950;11.014;2023-02-01T11:41:12;97678.08;;;-1.90;80.19
62864;BME280;48954;59.950;11.014;2023-02-01T11:43:53;97684.34;;;-1.92;79.90
62864;BME280;48954;59.950;11.014;2023-02-01T11:46:23;97690.84;;;-1.95;79.68
62864;BME280;48954;59.950;11.014;2023-02-01T11:48:49;97697.14;;;-1.99;79.76
62864;BME280;48954;59.950;11.014;2023-02-01T11:54:25;97698.81;;;-2.06;79.80
62864;BME280;48954;59.950;11.014;2023-02-01T12:02:57;97697.80;;;-1.98;79.86
62864;BME280;48954;59.950;11.014;2023-02-01T12:05:29;97697.16;;;-1.97;79.62
62864;BME280;48954;59.950;11.014;2023-02-01T12:08:09;97701.48;;;-1.97;79.82
62864;BME280;48954;59.950;11.014;2023-02-01T12:10:52;97699.27;;;-2.00;79.47
62864;BME280;48954;59.950;11.014;2023-02-01T12:16:37;97699.17;;;-2.06;79.81
62864;BME280;48954;59.950;11.014;2023-02-01T12:19:34;97694.58;;;-2.10;79.78
62864;BME280;48954;59.950;11.014;2023-02-01T12:22:36;97706.79;;;-2.12;79.54
62864;BME280;48954;59.950;11.014;2023-02-01T12:26:07;97708.42;;;-2.16;79.34
62864;BME280;48954;59.950;11.014;2023-02-01T12:33:58;97708.08;;;-2.17;79.69
62864;BME280;48954;59.950;11.014;2023-02-01T12:41:52;97705.20;;;-2.22;79.10
62864;BME280;48954;59.950;11.014;2023-02-01T12:44:34;97703.44;;;-2.24;78.91
62864;BME280;48954;59.950;11.014;2023-02-01T12:49:48;97711.43;;;-2.34;79.22
62864;BME280;48954;59.950;11.014;2023-02-01T12:52:36;97711.46;;;-2.37;78.88
62864;BME280;48954;59.950;11.014;2023-02-01T12:57:45;97721.06;;;-2.41;79.38
62864;BME280;48954;59.950;11.014;2023-02-01T13:00:22;97723.27;;;-2.41;79.08
62864;BME280;48954;59.950;11.014;2023-02-01T13:03:01;97723.76;;;-2.42;78.99
62864;BME280;48954;59.950;11.014;2023-02-01T13:05:42;97725.73;;;-2.43;78.98
62864;BME280;48954;59.950;11.014;2023-02-01T13:08:26;97725.74;;;-2.47;78.81
62864;BME280;48954;59.950;11.014;2023-02-01T13:11:26;97733.02;;;-2.48;78.70
62864;BME280;48954;59.950;11.014;2023-02-01T13:14:08;97736.15;;;-2.48;78.90
62864;BME280;48954;59.950;11.014;2023-02-01T13:16:47;97740.63;;;-2.54;78.88
62864;BME280;48954;59.950;11.014;2023-02-01T13:19:28;97745.58;;;-2.58;78.41
62864;BME280;48954;59.950;11.014;2023-02-01T13:21:58;97752.60;;;-2.63;78.41
62864;BME280;48954;59.950;11.014;2023-02-01T13:24:44;97759.66;;;-2.67;78.68
62864;BME280;48954;59.950;11.014;2023-02-01T13:27:12;97767.47;;;-2.74;78.79
62864;BME280;48954;59.950;11.014;2023-02-01T13:29:48;97775.53;;;-2.79;78.80
62864;BME280;48954;59.950;11.014;2023-02-01T13:32:30;97783.06;;;-2.84;78.56
62864;BME280;48954;59.950;11.014;2023-02-01T13:44:16;97797.92;;;-2.97;78.50
62864;BME280;48954;59.950;11.014;2023-02-01T13:46:46;97795.67;;;-3.01;78.41
62864;BME280;48954;59.950;11.014;2023-02-01T13:49:22;97799.30;;;-3.04;78.15
62864;BME280;48954;59.950;11.014;2023-02-01T13:51:52;97799.33;;;-3.08;78.19
62864;BME280;48954;59.950;11.014;2023-02-01T13:54:28;97809.02;;;-3.12;78.23
62864;BME280;48954;59.950;11.014;2023-02-01T13:56:55;97816.80;;;-3.15;78.34
62864;BME280;48954;59.950;11.014;2023-02-01T14:05:10;97819.95;;;-3.23;78.16
62864;BME280;48954;59.950;11.014;2023-02-01T14:10:55;97822.30;;;-3.29;78.02
62864;BME280;48954;59.950;11.014;2023-02-01T14:13:48;97824.39;;;-3.32;78.01
62864;BME280;48954;59.950;11.014;2023-02-01T14:16:16;97825.73;;;-3.35;77.92
62864;BME280;48954;59.950;11.014;2023-02-01T14:21:32;97826.58;;;-3.36;78.09
62864;BME280;48954;59.950;11.014;2023-02-01T14:24:13;97828.52;;;-3.38;78.36
62864;BME280;48954;59.950;11.014;2023-02-01T14:26:44;97833.27;;;-3.40;78.04
62864;BME280;48954;59.950;11.014;2023-02-01T14:31:59;97847.91;;;-3.42;78.19
62864;BME280;48954;59.950;11.014;2023-02-01T14:37:06;97863.25;;;-3.49;77.76
62864;BME280;48954;59.950;11.014;2023-02-01T14:39:36;97868.06;;;-3.54;77.82
62864;BME280;48954;59.950;11.014;2023-02-01T14:42:12;97876.03;;;-3.59;77.73
62864;BME280;48954;59.950;11.014;2023-02-01T14:44:40;97879.64;;;-3.65;77.60
62864;BME280;48954;59.950;11.014;2023-02-01T14:47:10;97886.16;;;-3.69;77.65
62864;BME280;48954;59.950;11.014;2023-02-01T14:52:39;97895.38;;;-3.78;77.72
62864;BME280;48954;59.950;11.014;2023-02-01T14:58:16;97903.59;;;-3.82;78.30
62864;BME280;48954;59.950;11.014;2023-02-01T15:00:55;97909.58;;;-3.81;78.21